Time;durP1;ratioP1;P1;durP2;ratioP2;P2;SDS_P1;SDS_P2;PMS_P1;PMS_P2;Temp;Humidity;BMP_temperature;BMP_pressure;BME280_temperature;BME280_humidity;BME280_pressure;Samples;Min_cycle;Max_cycle;Signal;HPM_P1;HPM_P2
2023/03/13 00:03:10;;;;;;;1999.90;999.90;;;11.20;99.90;;;;;;6635407;89;20210;-76
2023/03/13 00:13:11;;;;;;;1999.90;999.90;;;11.40;99.90;;;;;;6639083;89;20233;-76
2023/03/13 00:23:12;;;;;;;1999.90;999.90;;;11.50;99.90;;;;;;6646431;89;20737;-78
2023/03/13 00:33:12;;;;;;;1999.90;999.90;;;11.40;99.90;;;;;;6634057;88;20193;-77
2023/03/13 00:43:13;;;;;;;1999.90;999.90;;;11.40;99.90;;;;;;6629111;89;20308;-77
2023/03/13 00:53:14;;;;;;;1999.90;999.90;;;11.40;99.90;;;;;;6645976;89;20209;-77
2023/03/13 01:03:14;;;;;;;1999.90;999.90;;;11.40;99.90;;;;;;6643017;89;20228;-75
2023/03/13 01:13:15;;;;;;;1999.90;999.90;;;10.90;99.90;;;;;;6640110;89;20208;-76
2023/03/13 01:23:15;;;;;;;1999.90;999.90;;;10.70;99.90;;;;;;6635570;89;20210;-77
2023/03/13 01:33:16;;;;;;;1999.90;999.90;;;10.80;99.90;;;;;;6639461;89;20540;-76
2023/03/13 01:43:25;;;;;;;1999.90;999.90;;;11.10;99.90;;;;;;6631224;89;20204;-76
2023/03/13 01:53:26;;;;;;;1999.90;999.90;;;11.30;99.90;;;;;;6631064;89;20338;-76
2023/03/13 02:03:28;;;;;;;1999.90;999.90;;;11.40;99.90;;;;;;6633158;89;20348;-77
2023/03/13 02:13:29;;;;;;;1999.90;999.90;;;11.50;99.90;;;;;;6642176;88;20185;-76
2023/03/13 02:23:51;;;;;;;1999.90;999.90;;;11.60;99.90;;;;;;6644384;89;20209;-75
2023/03/13 02:33:53;;;;;;;1999.90;999.90;;;11.70;99.90;;;;;;6630251;89;20184;-74
2023/03/13 02:43:54;;;;;;;1999.90;999.90;;;11.80;99.90;;;;;;6629765;89;20341;-77
2023/03/13 02:53:59;;;;;;;1999.90;999.90;;;11.40;99.90;;;;;;6631163;89;20917;-75
2023/03/13 03:04:00;;;;;;;1999.90;999.90;;;10.90;99.90;;;;;;6640706;88;20215;-76
2023/03/13 03:14:00;;;;;;;1999.90;999.90;;;11.00;99.90;;;;;;6645875;88;20193;-76
2023/03/13 03:24:01;;;;;;;1999.90;999.90;;;11.20;99.90;;;;;;6646278;88;20203;-77
2023/03/13 03:34:02;;;;;;;1999.90;999.90;;;11.20;99.90;;;;;;6645959;88;20217;-76
2023/03/13 03:44:04;;;;;;;1999.90;999.90;;;11.40;99.90;;;;;;6648966;88;20259;-77
2023/03/13 03:54:04;;;;;;;1999.90;999.90;;;11.30;99.90;;;;;;6645880;89;20527;-79
2023/03/13 04:04:05;;;;;;;1999.90;999.90;;;11.50;99.90;;;;;;6646657;88;20689;-77
2023/03/13 04:14:06;;;;;;;1999.90;999.90;;;11.60;99.90;;;;;;6644543;88;20181;-76
2023/03/13 04:24:07;;;;;;;1999.90;999.90;;;11.60;99.90;;;;;;6644652;88;20786;-77
2023/03/13 04:34:07;;;;;;;1999.90;999.90;;;11.80;99.90;;;;;;6644914;88;20251;-78
2023/03/13 04:44:08;;;;;;;1999.90;999.90;;;11.90;99.90;;;;;;6645010;89;20657;-77
2023/03/13 04:54:10;;;;;;;1999.90;999.90;;;11.90;99.90;;;;;;6643597;88;20275;-77
2023/03/13 05:04:11;;;;;;;1999.90;999.90;;;12.00;99.90;;;;;;6644148;88;20219;-77
2023/03/13 05:14:11;;;;;;;1999.90;999.90;;;11.90;99.90;;;;;;6646376;88;20189;-77
2023/03/13 05:24:12;;;;;;;1999.90;999.90;;;12.20;99.90;;;;;;6642108;89;20231;-77
2023/03/13 05:34:12;;;;;;;1999.90;999.90;;;12.40;99.90;;;;;;6642116;88;20706;-77
2023/03/13 05:44:13;;;;;;;1999.90;999.90;;;12.40;99.90;;;;;;6643944;89;20197;-77
2023/03/13 05:54:13;;;;;;;1999.90;999.90;;;12.50;99.90;;;;;;6645517;88;20283;-78
2023/03/13 06:04:14;;;;;;;1999.90;999.90;;;12.90;99.90;;;;;;6647000;88;20212;-77
2023/03/13 06:14:14;;;;;;;1999.90;999.90;;;13.00;99.90;;;;;;6648039;89;20234;-78
2023/03/13 06:24:15;;;;;;;1999.90;999.90;;;13.10;99.90;;;;;;6652613;88;21152;-77
2023/03/13 06:34:16;;;;;;;1999.90;999.90;;;13.30;99.90;;;;;;6641997;88;20245;-75
2023/03/13 06:44:17;;;;;;;1999.90;999.90;;;13.40;99.90;;;;;;6655687;88;20724;-77
2023/03/13 06:54:17;;;;;;;1999.90;999.90;;;13.40;99.90;;;;;;6666449;88;20196;-77
2023/03/13 07:04:18;;;;;;;1999.90;999.90;;;13.60;99.90;;;;;;6661853;88;20219;-78
2023/03/13 07:14:19;;;;;;;1999.90;999.90;;;13.80;99.90;;;;;;6650365;88;20267;-77
2023/03/13 07:24:20;;;;;;;1999.90;999.90;;;13.90;99.90;;;;;;6650133;88;20950;-77
2023/03/13 07:34:20;;;;;;;1999.90;999.90;;;14.30;99.90;;;;;;6646374;88;20239;-77
2023/03/13 07:44:21;;;;;;;1999.90;999.90;;;14.50;99.90;;;;;;6646654;89;20670;-77
2023/03/13 07:54:22;;;;;;;1999.90;999.90;;;14.50;99.90;;;;;;6648466;88;20197;-78
2023/03/13 08:04:22;;;;;;;1999.90;999.90;;;14.60;99.90;;;;;;6643220;88;20213;-78
2023/03/13 08:14:23;;;;;;;1999.90;999.90;;;14.80;99.90;;;;;;6646980;88;20725;-79
2023/03/13 08:24:23;;;;;;;1999.90;999.90;;;15.00;99.90;;;;;;6644504;89;20199;-78
2023/03/13 08:34:24;;;;;;;1999.90;999.90;;;15.10;99.90;;;;;;6643826;88;20524;-78
2023/03/13 08:44:24;;;;;;;1999.90;999.90;;;15.10;99.90;;;;;;6642852;88;20595;-78
2023/03/13 08:54:25;;;;;;;1999.90;999.90;;;15.10;99.90;;;;;;6649683;88;20191;-77
2023/03/13 09:04:26;;;;;;;1999.90;999.90;;;15.10;99.90;;;;;;6641319;88;20712;-77
2023/03/13 09:14:26;;;;;;;1999.90;999.90;;;15.10;99.90;;;;;;6640932;88;20549;-78
2023/03/13 09:24:27;;;;;;;1999.90;999.90;;;15.20;99.90;;;;;;6642700;89;20246;-77
2023/03/13 09:34:27;;;;;;;1999.90;999.90;;;15.30;99.90;;;;;;6640204;89;20244;-77
2023/03/13 09:44:35;;;;;;;1999.90;999.90;;;15.30;99.90;;;;;;6640237;89;20213;-76
2023/03/13 09:54:47;;;;;;;1999.90;999.90;;;15.20;99.90;;;;;;6641423;88;20196;-76
2023/03/13 10:04:54;;;;;;;1999.90;999.90;;;15.10;99.90;;;;;;6651841;89;20217;-76
2023/03/13 10:15:04;;;;;;;1999.90;999.90;;;15.20;99.90;;;;;;6640606;88;20365;-77
2023/03/13 10:25:27;;;;;;;1999.90;999.90;;;15.30;99.90;;;;;;6637159;89;20720;-77
2023/03/13 10:35:37;;;;;;;1999.90;999.90;;;15.30;99.90;;;;;;6638538;89;20237;-78
2023/03/13 10:45:38;;;;;;;1999.90;999.90;;;15.30;99.90;;;;;;6637579;89;20213;-78
2023/03/13 10:55:43;;;;;;;1999.90;999.90;;;15.30;99.90;;;;;;6638938;89;20244;-78
2023/03/13 11:05:53;;;;;;;1999.90;999.90;;;15.30;99.90;;;;;;6639776;89;20205;-78
2023/03/13 11:15:59;;;;;;;1999.90;999.90;;;15.40;99.90;;;;;;6641189;88;20676;-78
2023/03/13 11:26:11;;;;;;;;;;;15.70;99.90;;;;;;6639715;89;20830;-78
2023/03/13 11:36:20;;;;;;;1999.90;999.90;;;15.90;99.90;;;;;;6638660;88;20067;-78
2023/03/13 11:46:47;;;;;;;1999.90;999.90;;;16.40;99.90;;;;;;6637581;89;20730;-78
2023/03/13 11:57:04;;;;;;;1999.90;999.90;;;16.90;99.90;;;;;;6639427;88;20210;-77
2023/03/13 12:07:19;;;;;;;1999.90;999.90;;;17.40;99.90;;;;;;6638098;88;20251;-78
2023/03/13 12:17:42;;;;;;;1999.90;999.90;;;17.10;99.90;;;;;;6636731;88;20264;-78
2023/03/13 12:27:49;;;;;;;1999.90;999.90;;;17.50;99.90;;;;;;6639800;89;20223;-77
2023/03/13 12:37:49;;;;;;;1999.90;999.90;;;17.30;99.90;;;;;;6639135;88;20199;-78
2023/03/13 12:48:22;;;;;;;1999.90;999.90;;;17.30;99.90;;;;;;6643470;88;20787;-77
2023/03/13 12:58:46;;;;;;;1999.90;999.90;;;17.10;99.90;;;;;;6640603;89;20283;-78
2023/03/13 13:08:53;;;;;;;1999.90;999.90;;;16.90;99.90;;;;;;6642206;88;20218;-78
2023/03/13 13:18:54;;;;;;;1999.90;999.90;;;17.00;99.90;;;;;;6639256;89;20200;-77
2023/03/13 13:28:56;;;;;;;1999.90;999.90;;;16.60;99.90;;;;;;6641034;89;20304;-78
2023/03/13 13:38:57;;;;;;;1999.90;999.90;;;16.40;99.90;;;;;;6647384;88;20181;-78
2023/03/13 13:49:07;;;;;;;1999.90;999.90;;;17.70;99.90;;;;;;6659394;88;20227;-78
2023/03/13 13:59:20;;;;;;;1999.90;999.90;;;17.80;99.90;;;;;;6658633;88;20257;-77
2023/03/13 14:09:39;;;;;;;1999.90;999.90;;;17.40;99.90;;;;;;6640812;88;20196;-77
2023/03/13 14:19:41;;;;;;;1999.90;999.90;;;17.40;99.90;;;;;;6640332;88;20329;-77
2023/03/13 14:30:07;;;;;;;1999.90;999.90;;;17.20;99.90;;;;;;6636787;89;20176;-77
2023/03/13 14:40:30;;;;;;;1999.90;999.90;;;17.10;99.90;;;;;;6639505;88;20200;-77
2023/03/13 14:50:31;;;;;;;1999.90;999.90;;;17.00;99.90;;;;;;6640088;88;20197;-76
2023/03/13 15:00:39;;;;;;;1999.90;999.90;;;16.70;99.90;;;;;;6642693;89;20365;-77
2023/03/13 15:10:40;;;;;;;1999.90;999.90;;;16.70;99.90;;;;;;6638914;89;20664;-77
2023/03/13 15:20:40;;;;;;;1999.90;999.90;;;16.70;99.90;;;;;;6642080;88;20248;-78
2023/03/13 15:30:42;;;;;;;1999.90;999.90;;;16.80;99.90;;;;;;6639773;88;20266;-77
2023/03/13 15:40:44;;;;;;;1999.90;999.90;;;17.40;99.90;;;;;;6639699;88;20669;-76
2023/03/13 15:50:48;;;;;;;1999.90;999.90;;;17.60;99.90;;;;;;6638749;88;20188;-76
2023/03/13 16:00:49;;;;;;;1999.90;999.90;;;17.10;99.90;;;;;;6641666;88;20232;-77
2023/03/13 16:10:50;;;;;;;1999.90;999.90;;;17.50;99.90;;;;;;6636795;89;20275;-77
2023/03/13 16:20:52;;;;;;;1999.90;999.90;;;17.70;99.90;;;;;;6636109;88;20229;-77
2023/03/13 16:30:55;;;;;;;1999.90;999.90;;;17.60;99.90;;;;;;6644484;88;20244;-78
2023/03/13 16:40:55;;;;;;;1999.90;999.90;;;17.60;99.90;;;;;;6651410;88;20228;-78
2023/03/13 16:50:56;;;;;;;1999.90;999.90;;;17.20;99.90;;;;;;6646636;89;20266;-78
2023/03/13 17:00:56;;;;;;;1999.90;999.90;;;16.70;99.90;;;;;;6645277;88;20207;-78
2023/03/13 17:10:57;;;;;;;1999.90;999.90;;;16.40;99.90;;;;;;6642916;88;20207;-77
2023/03/13 17:20:57;;;;;;;1999.90;999.90;;;16.10;99.90;;;;;;6640921;89;20207;-78
2023/03/13 17:30:57;;;;;;;1999.90;999.90;;;15.90;99.90;;;;;;6648735;88;20184;-78
2023/03/13 17:40:58;;;;;;;1999.90;999.90;;;15.70;99.90;;;;;;6655117;88;20320;-78
2023/03/13 17:50:59;;;;;;;1999.90;999.90;;;15.40;99.90;;;;;;6658101;88;20204;-79
2023/03/13 18:00:59;;;;;;;1999.90;999.90;;;15.40;99.90;;;;;;6656973;88;20252;-78
2023/03/13 18:11:00;;;;;;;1999.90;999.90;;;15.10;99.90;;;;;;6659464;88;20708;-78
2023/03/13 18:21:00;;;;;;;1999.90;999.90;;;15.10;99.90;;;;;;6635862;88;20188;-78
2023/03/13 18:31:01;;;;;;;1999.90;999.90;;;15.10;99.90;;;;;;6637744;88;20304;-78
2023/03/13 18:41:01;;;;;;;1999.90;999.90;;;15.10;99.90;;;;;;6648226;89;20195;-78
2023/03/13 18:51:03;;;;;;;1999.90;999.90;;;15.10;99.90;;;;;;6646197;88;20724;-78
2023/03/13 19:01:04;;;;;;;1999.90;999.90;;;14.90;99.90;;;;;;6641266;89;20181;-78
2023/03/13 19:11:05;;;;;;;1999.90;999.90;;;14.50;99.90;;;;;;6643054;88;20183;-79
2023/03/13 19:21:20;;;;;;;1999.90;999.90;;;14.60;99.90;;;;;;6642692;89;20197;-78
2023/03/13 19:31:21;;;;;;;;;;;14.50;99.90;;;;;;6639161;89;20226;-77
2023/03/13 19:41:22;;;;;;;1999.90;999.90;;;14.40;99.90;;;;;;6648533;89;21075;-80
2023/03/13 19:51:24;;;;;;;1999.90;999.90;;;14.20;99.90;;;;;;6648081;89;20246;-79
2023/03/13 20:01:24;;;;;;;1999.90;999.90;;;13.90;99.90;;;;;;6647394;89;20315;-78
2023/03/13 20:11:26;;;;;;;1999.90;999.90;;;13.70;99.90;;;;;;6643256;89;20212;-78
2023/03/13 20:21:32;;;;;;;1999.90;999.90;;;13.50;99.90;;;;;;6633037;89;20198;-78
2023/03/13 20:31:33;;;;;;;1999.90;999.90;;;13.20;99.90;;;;;;6626792;88;20249;-77
2023/03/13 20:41:34;;;;;;;1999.90;999.90;;;13.10;99.90;;;;;;6632008;89;20230;-78
2023/03/13 20:51:34;;;;;;;1999.90;999.90;;;12.80;99.90;;;;;;6644222;88;20188;-78
2023/03/13 21:01:35;;;;;;;1999.90;999.90;;;12.50;99.90;;;;;;6644494;88;20170;-77
2023/03/13 21:11:36;;;;;;;1999.90;999.90;;;12.50;99.90;;;;;;6643242;89;20728;-78
2023/03/13 21:21:36;;;;;;;1999.90;999.90;;;12.30;99.90;;;;;;6643723;89;20180;-79
2023/03/13 21:31:37;;;;;;;1999.90;999.90;;;12.00;99.90;;;;;;6644287;88;20217;-78
2023/03/13 21:41:37;;;;;;;1999.90;999.90;;;11.80;99.90;;;;;;6642475;88;20272;-79
2023/03/13 21:51:38;;;;;;;1999.90;999.90;;;12.00;99.90;;;;;;6646642;89;20220;-77
2023/03/13 22:01:41;;;;;;;1999.90;999.90;;;12.10;99.90;;;;;;6643751;89;20222;-77
2023/03/13 22:11:41;;;;;;;1999.90;999.90;;;12.20;99.90;;;;;;6638564;88;20287;-79
2023/03/13 22:21:43;;;;;;;1999.90;999.90;;;12.20;99.90;;;;;;6643599;88;20226;-79
2023/03/13 22:31:43;;;;;;;1999.90;999.90;;;12.20;99.90;;;;;;6647304;88;20222;-78
2023/03/13 22:41:44;;;;;;;1999.90;999.90;;;12.10;99.90;;;;;;6644293;88;20200;-79
2023/03/13 22:51:45;;;;;;;1999.90;999.90;;;12.20;99.90;;;;;;6643128;88;20220;-79
2023/03/13 23:01:45;;;;;;;1999.90;999.90;;;11.90;99.90;;;;;;6646367;88;20209;-78
2023/03/13 23:11:46;;;;;;;1999.90;999.90;;;11.60;99.90;;;;;;6648568;88;20181;-79
2023/03/13 23:21:46;;;;;;;1999.90;999.90;;;11.60;99.90;;;;;;6645732;89;20387;-79
2023/03/13 23:31:47;;;;;;;1999.90;999.90;;;11.60;99.90;;;;;;6646766;88;20214;-78
2023/03/13 23:41:48;;;;;;;1999.90;999.90;;;11.70;99.90;;;;;;6642032;88;20392;-78
2023/03/13 23:51:48;;;;;;;1999.90;999.90;;;11.80;99.90;;;;;;6644124;88;20211;-78
